sensor_id;sensor_type;location;lat;lon;timestamp;temperature;humidity
56240;DHT22;42154;51.992;5.896;2024-03-25T00:00:40;5.40;99.90
56240;DHT22;42154;51.992;5.896;2024-03-25T00:03:06;5.30;99.90
56240;DHT22;42154;51.992;5.896;2024-03-25T00:05:32;5.30;99.90
56240;DHT22;42154;51.992;5.896;2024-03-25T00:07:58;5.30;99.90
56240;DHT22;42154;51.992;5.896;2024-03-25T00:10:24;5.30;99.90
56240;DHT22;42154;51.992;5.896;2024-03-25T00:12:50;5.30;99.90
56240;DHT22;42154;51.992;5.896;2024-03-25T00:15:20;5.30;99.90
56240;DHT22;42154;51.992;5.896;2024-03-25T00:17:47;5.40;99.90
56240;DHT22;42154;51.992;5.896;2024-03-25T00:20:13;5.30;99.90
56240;DHT22;42154;51.992;5.896;2024-03-25T00:22:41;5.30;99.90
56240;DHT22;42154;51.992;5.896;2024-03-25T00:25:07;5.40;99.90
56240;DHT22;42154;51.992;5.896;2024-03-25T00:27:33;5.30;99.90
56240;DHT22;42154;51.992;5.896;2024-03-25T00:29:59;5.30;99.90
56240;DHT22;42154;51.992;5.896;2024-03-25T00:32:25;5.30;99.90
56240;DHT22;42154;51.992;5.896;2024-03-25T00:34:50;5.30;99.90
56240;DHT22;42154;51.992;5.896;2024-03-25T00:37:16;5.30;99.90
56240;DHT22;42154;51.992;5.896;2024-03-25T00:39:42;5.30;99.90
56240;DHT22;42154;51.992;5.896;2024-03-25T00:42:07;5.30;99.90
56240;DHT22;42154;51.992;5.896;2024-03-25T00:44:33;5.30;99.90
56240;DHT22;42154;51.992;5.896;2024-03-25T00:46:59;5.40;99.90
56240;DHT22;42154;51.992;5.896;2024-03-25T00:49:25;5.40;99.90
56240;DHT22;42154;51.992;5.896;2024-03-25T00:51:50;5.50;99.90
56240;DHT22;42154;51.992;5.896;2024-03-25T00:54:16;5.40;99.90
56240;DHT22;42154;51.992;5.896;2024-03-25T00:56:42;5.40;99.90
56240;DHT22;42154;51.992;5.896;2024-03-25T00:59:07;5.40;99.90
56240;DHT22;42154;51.992;5.896;2024-03-25T01:01:33;5.30;99.90
56240;DHT22;42154;51.992;5.896;2024-03-25T01:04:01;5.30;99.90
56240;DHT22;42154;51.992;5.896;2024-03-25T01:06:27;5.20;99.90
56240;DHT22;42154;51.992;5.896;2024-03-25T01:08:53;5.20;99.90
56240;DHT22;42154;51.992;5.896;2024-03-25T01:11:18;5.20;99.90
56240;DHT22;42154;51.992;5.896;2024-03-25T01:13:44;5.20;99.90
56240;DHT22;42154;51.992;5.896;2024-03-25T01:16:10;5.10;99.90
56240;DHT22;42154;51.992;5.896;2024-03-25T01:18:36;5.00;99.90
56240;DHT22;42154;51.992;5.896;2024-03-25T01:21:02;5.00;99.90
56240;DHT22;42154;51.992;5.896;2024-03-25T01:23:28;5.00;99.90
56240;DHT22;42154;51.992;5.896;2024-03-25T01:25:54;5.00;99.90
56240;DHT22;42154;51.992;5.896;2024-03-25T01:28:20;5.00;99.90
56240;DHT22;42154;51.992;5.896;2024-03-25T01:30:45;4.90;99.90
56240;DHT22;42154;51.992;5.896;2024-03-25T01:33:11;4.90;99.90
56240;DHT22;42154;51.992;5.896;2024-03-25T01:35:37;4.90;99.90
56240;DHT22;42154;51.992;5.896;2024-03-25T01:38:03;4.90;99.90
56240;DHT22;42154;51.992;5.896;2024-03-25T01:40:29;4.90;99.90
56240;DHT22;42154;51.992;5.896;2024-03-25T01:42:59;4.90;99.90
56240;DHT22;42154;51.992;5.896;2024-03-25T01:45:25;4.90;99.90
56240;DHT22;42154;51.992;5.896;2024-03-25T01:47:53;4.80;99.90
56240;DHT22;42154;51.992;5.896;2024-03-25T01:50:20;4.80;99.90
56240;DHT22;42154;51.992;5.896;2024-03-25T01:52:46;4.80;99.90
56240;DHT22;42154;51.992;5.896;2024-03-25T01:55:16;4.80;99.90
56240;DHT22;42154;51.992;5.896;2024-03-25T01:57:44;4.80;99.90
56240;DHT22;42154;51.992;5.896;2024-03-25T02:00:10;4.80;99.90
56240;DHT22;42154;51.992;5.896;2024-03-25T02:02:45;4.80;99.90
56240;DHT22;42154;51.992;5.896;2024-03-25T02:05:16;4.80;99.90
56240;DHT22;42154;51.992;5.896;2024-03-25T02:07:43;4.80;99.90
56240;DHT22;42154;51.992;5.896;2024-03-25T02:10:09;4.90;99.90
56240;DHT22;42154;51.992;5.896;2024-03-25T02:12:45;4.70;99.90
56240;DHT22;42154;51.992;5.896;2024-03-25T02:15:12;4.80;99.90
56240;DHT22;42154;51.992;5.896;2024-03-25T02:17:39;4.70;99.90
56240;DHT22;42154;51.992;5.896;2024-03-25T02:20:05;4.70;99.90
56240;DHT22;42154;51.992;5.896;2024-03-25T02:22:33;4.70;99.90
56240;DHT22;42154;51.992;5.896;2024-03-25T02:24:59;4.70;99.90
56240;DHT22;42154;51.992;5.896;2024-03-25T02:27:26;4.70;99.90
56240;DHT22;42154;51.992;5.896;2024-03-25T02:29:54;4.70;99.90
56240;DHT22;42154;51.992;5.896;2024-03-25T02:32:20;4.70;99.90
56240;DHT22;42154;51.992;5.896;2024-03-25T02:34:51;4.70;99.90
56240;DHT22;42154;51.992;5.896;2024-03-25T02:37:18;4.70;99.90
56240;DHT22;42154;51.992;5.896;2024-03-25T02:39:44;4.70;99.90
56240;DHT22;42154;51.992;5.896;2024-03-25T02:42:10;4.70;99.90
56240;DHT22;42154;51.992;5.896;2024-03-25T02:44:36;4.80;99.90
56240;DHT22;42154;51.992;5.896;2024-03-25T02:47:03;4.80;99.90
56240;DHT22;42154;51.992;5.896;2024-03-25T02:49:29;4.90;99.90
56240;DHT22;42154;51.992;5.896;2024-03-25T02:51:55;5.10;99.90
56240;DHT22;42154;51.992;5.896;2024-03-25T02:54:21;5.00;99.90
56240;DHT22;42154;51.992;5.896;2024-03-25T02:56:47;5.10;99.90
56240;DHT22;42154;51.992;5.896;2024-03-25T02:59:13;5.10;99.90
56240;DHT22;42154;51.992;5.896;2024-03-25T03:01:38;5.10;99.90
56240;DHT22;42154;51.992;5.896;2024-03-25T03:04:04;5.20;99.90
56240;DHT22;42154;51.992;5.896;2024-03-25T03:06:30;5.30;99.90
56240;DHT22;42154;51.992;5.896;2024-03-25T03:08:55;5.30;99.90
56240;DHT22;42154;51.992;5.896;2024-03-25T03:11:21;5.30;99.90
56240;DHT22;42154;51.992;5.896;2024-03-25T03:13:47;5.30;99.90
56240;DHT22;42154;51.992;5.896;2024-03-25T03:16:12;5.40;99.90
56240;DHT22;42154;51.992;5.896;2024-03-25T03:18:39;5.30;99.90
56240;DHT22;42154;51.992;5.896;2024-03-25T03:21:04;5.30;99.90
56240;DHT22;42154;51.992;5.896;2024-03-25T03:23:30;5.30;99.90
56240;DHT22;42154;51.992;5.896;2024-03-25T03:25:56;5.40;99.90
56240;DHT22;42154;51.992;5.896;2024-03-25T03:28:25;5.30;99.90
56240;DHT22;42154;51.992;5.896;2024-03-25T03:30:51;5.30;99.90
56240;DHT22;42154;51.992;5.896;2024-03-25T03:33:16;5.30;99.90
56240;DHT22;42154;51.992;5.896;2024-03-25T03:35:43;5.30;99.90
56240;DHT22;42154;51.992;5.896;2024-03-25T03:38:08;5.30;99.90
56240;DHT22;42154;51.992;5.896;2024-03-25T03:40:34;5.20;99.90
56240;DHT22;42154;51.992;5.896;2024-03-25T03:43:00;5.20;99.90
56240;DHT22;42154;51.992;5.896;2024-03-25T03:45:25;5.20;99.90
56240;DHT22;42154;51.992;5.896;2024-03-25T03:47:51;5.10;99.90
56240;DHT22;42154;51.992;5.896;2024-03-25T03:50:17;5.10;99.90
56240;DHT22;42154;51.992;5.896;2024-03-25T03:52:43;5.00;99.90
56240;DHT22;42154;51.992;5.896;2024-03-25T03:55:09;4.90;99.90
56240;DHT22;42154;51.992;5.896;2024-03-25T03:57:35;4.90;99.90
56240;DHT22;42154;51.992;5.896;2024-03-25T04:00:01;4.80;99.90
56240;DHT22;42154;51.992;5.896;2024-03-25T04:02:28;4.70;99.90
56240;DHT22;42154;51.992;5.896;2024-03-25T04:04:56;4.70;99.90
56240;DHT22;42154;51.992;5.896;2024-03-25T04:07:22;4.60;99.90
56240;DHT22;42154;51.992;5.896;2024-03-25T04:09:53;4.60;99.90
56240;DHT22;42154;51.992;5.896;2024-03-25T04:12:19;4.50;99.90
56240;DHT22;42154;51.992;5.896;2024-03-25T04:14:48;4.40;99.90
56240;DHT22;42154;51.992;5.896;2024-03-25T04:17:18;4.40;99.90
56240;DHT22;42154;51.992;5.896;2024-03-25T04:19:44;4.30;99.90
56240;DHT22;42154;51.992;5.896;2024-03-25T04:22:10;4.30;99.90
56240;DHT22;42154;51.992;5.896;2024-03-25T04:24:35;4.30;99.90
56240;DHT22;42154;51.992;5.896;2024-03-25T04:27:01;4.40;99.90
56240;DHT22;42154;51.992;5.896;2024-03-25T04:29:27;4.20;99.90
56240;DHT22;42154;51.992;5.896;2024-03-25T04:31:54;4.20;99.90
56240;DHT22;42154;51.992;5.896;2024-03-25T04:34:20;4.10;99.90
56240;DHT22;42154;51.992;5.896;2024-03-25T04:36:46;4.10;99.90
56240;DHT22;42154;51.992;5.896;2024-03-25T04:39:12;4.10;99.90
56240;DHT22;42154;51.992;5.896;2024-03-25T04:41:37;4.10;99.90
56240;DHT22;42154;51.992;5.896;2024-03-25T04:44:03;4.10;99.90
56240;DHT22;42154;51.992;5.896;2024-03-25T04:46:29;4.00;99.90
56240;DHT22;42154;51.992;5.896;2024-03-25T04:48:54;4.00;99.90
56240;DHT22;42154;51.992;5.896;2024-03-25T04:51:20;4.00;99.90
56240;DHT22;42154;51.992;5.896;2024-03-25T04:53:46;4.00;99.90
56240;DHT22;42154;51.992;5.896;2024-03-25T04:56:12;4.00;99.90
56240;DHT22;42154;51.992;5.896;2024-03-25T04:58:38;4.00;99.90
56240;DHT22;42154;51.992;5.896;2024-03-25T05:01:04;4.00;99.90
56240;DHT22;42154;51.992;5.896;2024-03-25T05:03:30;3.90;99.90
56240;DHT22;42154;51.992;5.896;2024-03-25T05:05:56;3.90;99.90
56240;DHT22;42154;51.992;5.896;2024-03-25T05:08:22;3.90;99.90
56240;DHT22;42154;51.992;5.896;2024-03-25T05:10:48;3.80;99.90
56240;DHT22;42154;51.992;5.896;2024-03-25T05:13:13;3.80;99.90
56240;DHT22;42154;51.992;5.896;2024-03-25T05:15:39;3.90;99.90
56240;DHT22;42154;51.992;5.896;2024-03-25T05:18:05;3.70;99.90
56240;DHT22;42154;51.992;5.896;2024-03-25T05:20:31;3.70;99.90
56240;DHT22;42154;51.992;5.896;2024-03-25T05:22:57;3.70;99.90
56240;DHT22;42154;51.992;5.896;2024-03-25T05:25:22;3.70;99.90
56240;DHT22;42154;51.992;5.896;2024-03-25T05:27:54;3.70;99.90
56240;DHT22;42154;51.992;5.896;2024-03-25T05:30:19;3.70;99.90
56240;DHT22;42154;51.992;5.896;2024-03-25T05:32:45;3.70;99.90
56240;DHT22;42154;51.992;5.896;2024-03-25T05:35:11;3.70;99.90
56240;DHT22;42154;51.992;5.896;2024-03-25T05:37:37;3.70;99.90
56240;DHT22;42154;51.992;5.896;2024-03-25T05:40:03;3.70;99.90
56240;DHT22;42154;51.992;5.896;2024-03-25T05:42:29;3.70;99.90
56240;DHT22;42154;51.992;5.896;2024-03-25T05:44:54;3.70;99.90
56240;DHT22;42154;51.992;5.896;2024-03-25T05:47:20;3.70;99.90
56240;DHT22;42154;51.992;5.896;2024-03-25T05:49:47;3.80;99.90
56240;DHT22;42154;51.992;5.896;2024-03-25T05:52:12;3.80;99.90
56240;DHT22;42154;51.992;5.896;2024-03-25T05:54:38;3.80;99.90
56240;DHT22;42154;51.992;5.896;2024-03-25T05:57:04;3.80;99.90
56240;DHT22;42154;51.992;5.896;2024-03-25T05:59:29;3.90;99.90
56240;DHT22;42154;51.992;5.896;2024-03-25T06:01:55;3.90;99.90
56240;DHT22;42154;51.992;5.896;2024-03-25T06:04:21;3.90;99.90
56240;DHT22;42154;51.992;5.896;2024-03-25T06:06:46;4.00;99.90
56240;DHT22;42154;51.992;5.896;2024-03-25T06:09:12;4.00;99.90
56240;DHT22;42154;51.992;5.896;2024-03-25T06:11:38;4.00;99.90
56240;DHT22;42154;51.992;5.896;2024-03-25T06:14:03;4.00;99.90
56240;DHT22;42154;51.992;5.896;2024-03-25T06:16:29;4.10;99.90
56240;DHT22;42154;51.992;5.896;2024-03-25T06:18:55;4.10;99.90
56240;DHT22;42154;51.992;5.896;2024-03-25T06:21:20;4.10;99.90
56240;DHT22;42154;51.992;5.896;2024-03-25T06:23:47;4.20;99.90
56240;DHT22;42154;51.992;5.896;2024-03-25T06:26:13;4.20;99.90
56240;DHT22;42154;51.992;5.896;2024-03-25T06:28:39;4.30;99.90
56240;DHT22;42154;51.992;5.896;2024-03-25T06:31:05;4.30;99.90
56240;DHT22;42154;51.992;5.896;2024-03-25T06:33:49;4.30;99.90
56240;DHT22;42154;51.992;5.896;2024-03-25T06:36:33;4.40;99.90
56240;DHT22;42154;51.992;5.896;2024-03-25T06:39:00;4.40;99.90
56240;DHT22;42154;51.992;5.896;2024-03-25T06:41:26;4.40;99.90
56240;DHT22;42154;51.992;5.896;2024-03-25T06:43:53;4.50;99.90
56240;DHT22;42154;51.992;5.896;2024-03-25T06:46:19;4.50;99.90
56240;DHT22;42154;51.992;5.896;2024-03-25T06:48:45;4.50;99.90
56240;DHT22;42154;51.992;5.896;2024-03-25T06:51:11;4.60;99.90
56240;DHT22;42154;51.992;5.896;2024-03-25T06:53:36;4.70;99.90
56240;DHT22;42154;51.992;5.896;2024-03-25T06:56:02;4.80;99.90
56240;DHT22;42154;51.992;5.896;2024-03-25T06:58:28;4.80;99.90
56240;DHT22;42154;51.992;5.896;2024-03-25T07:00:55;4.80;99.90
56240;DHT22;42154;51.992;5.896;2024-03-25T07:03:23;4.90;99.90
56240;DHT22;42154;51.992;5.896;2024-03-25T07:05:50;5.00;99.90
56240;DHT22;42154;51.992;5.896;2024-03-25T07:08:20;5.00;99.90
56240;DHT22;42154;51.992;5.896;2024-03-25T07:10:46;5.10;99.90
56240;DHT22;42154;51.992;5.896;2024-03-25T07:13:12;5.10;99.90
56240;DHT22;42154;51.992;5.896;2024-03-25T07:15:38;5.10;99.90
56240;DHT22;42154;51.992;5.896;2024-03-25T07:18:05;5.20;99.90
56240;DHT22;42154;51.992;5.896;2024-03-25T07:20:31;5.20;99.90
56240;DHT22;42154;51.992;5.896;2024-03-25T07:22:58;5.20;99.90
56240;DHT22;42154;51.992;5.896;2024-03-25T07:25:24;5.40;99.90
56240;DHT22;42154;51.992;5.896;2024-03-25T07:27:50;5.30;99.90
56240;DHT22;42154;51.992;5.896;2024-03-25T07:30:16;5.40;99.90
56240;DHT22;42154;51.992;5.896;2024-03-25T07:32:42;5.40;99.90
56240;DHT22;42154;51.992;5.896;2024-03-25T07:35:11;5.50;99.90
56240;DHT22;42154;51.992;5.896;2024-03-25T07:37:37;5.50;99.90
56240;DHT22;42154;51.992;5.896;2024-03-25T07:40:06;5.50;99.90
56240;DHT22;42154;51.992;5.896;2024-03-25T07:42:32;5.60;99.90
56240;DHT22;42154;51.992;5.896;2024-03-25T07:44:57;5.70;99.90
56240;DHT22;42154;51.992;5.896;2024-03-25T07:47:23;5.70;99.90
56240;DHT22;42154;51.992;5.896;2024-03-25T07:49:49;5.70;99.90
56240;DHT22;42154;51.992;5.896;2024-03-25T07:52:14;5.80;99.90
56240;DHT22;42154;51.992;5.896;2024-03-25T07:54:40;6.00;99.90
56240;DHT22;42154;51.992;5.896;2024-03-25T07:57:08;5.90;99.90
56240;DHT22;42154;51.992;5.896;2024-03-25T07:59:34;6.00;99.90
56240;DHT22;42154;51.992;5.896;2024-03-25T08:02:00;6.10;99.90
56240;DHT22;42154;51.992;5.896;2024-03-25T08:04:26;6.10;99.90
56240;DHT22;42154;51.992;5.896;2024-03-25T08:06:52;6.20;99.90
56240;DHT22;42154;51.992;5.896;2024-03-25T08:09:17;6.30;99.90
56240;DHT22;42154;51.992;5.896;2024-03-25T08:11:43;6.40;99.90
56240;DHT22;42154;51.992;5.896;2024-03-25T08:14:09;6.40;99.90
56240;DHT22;42154;51.992;5.896;2024-03-25T08:16:35;6.50;99.90
56240;DHT22;42154;51.992;5.896;2024-03-25T08:19:01;6.50;99.90
56240;DHT22;42154;51.992;5.896;2024-03-25T08:21:27;6.60;99.90
56240;DHT22;42154;51.992;5.896;2024-03-25T08:23:53;6.70;99.90
56240;DHT22;42154;51.992;5.896;2024-03-25T08:26:19;6.70;99.90
56240;DHT22;42154;51.992;5.896;2024-03-25T08:28:45;6.80;99.90
56240;DHT22;42154;51.992;5.896;2024-03-25T08:31:10;6.80;99.90
56240;DHT22;42154;51.992;5.896;2024-03-25T08:33:36;6.90;99.90
56240;DHT22;42154;51.992;5.896;2024-03-25T08:36:02;7.00;99.90
56240;DHT22;42154;51.992;5.896;2024-03-25T08:38:29;7.10;99.90
56240;DHT22;42154;51.992;5.896;2024-03-25T08:40:54;7.20;99.90
56240;DHT22;42154;51.992;5.896;2024-03-25T08:43:20;7.20;99.90
56240;DHT22;42154;51.992;5.896;2024-03-25T08:45:46;7.30;99.90
56240;DHT22;42154;51.992;5.896;2024-03-25T08:48:12;7.40;99.90
56240;DHT22;42154;51.992;5.896;2024-03-25T08:50:38;7.50;99.90
56240;DHT22;42154;51.992;5.896;2024-03-25T08:53:04;7.60;99.90
56240;DHT22;42154;51.992;5.896;2024-03-25T08:55:30;7.70;99.90
56240;DHT22;42154;51.992;5.896;2024-03-25T08:57:56;7.70;99.90
56240;DHT22;42154;51.992;5.896;2024-03-25T09:00:27;7.80;99.90
56240;DHT22;42154;51.992;5.896;2024-03-25T09:02:56;7.90;99.90
56240;DHT22;42154;51.992;5.896;2024-03-25T09:05:22;8.00;99.90
56240;DHT22;42154;51.992;5.896;2024-03-25T09:07:51;8.10;99.90
56240;DHT22;42154;51.992;5.896;2024-03-25T09:10:18;8.20;99.90
56240;DHT22;42154;51.992;5.896;2024-03-25T09:13:03;8.20;99.90
56240;DHT22;42154;51.992;5.896;2024-03-25T09:15:29;8.30;99.90
56240;DHT22;42154;51.992;5.896;2024-03-25T09:17:55;8.40;99.90
56240;DHT22;42154;51.992;5.896;2024-03-25T09:20:21;8.40;99.90
56240;DHT22;42154;51.992;5.896;2024-03-25T09:22:47;8.50;99.90
56240;DHT22;42154;51.992;5.896;2024-03-25T09:25:16;8.60;99.90
56240;DHT22;42154;51.992;5.896;2024-03-25T09:27:51;8.70;99.90
56240;DHT22;42154;51.992;5.896;2024-03-25T09:30:17;8.70;99.90
56240;DHT22;42154;51.992;5.896;2024-03-25T09:32:45;8.80;99.90
56240;DHT22;42154;51.992;5.896;2024-03-25T09:35:11;8.80;99.90
56240;DHT22;42154;51.992;5.896;2024-03-25T09:37:37;8.90;99.90
56240;DHT22;42154;51.992;5.896;2024-03-25T09:40:03;9.10;99.90
56240;DHT22;42154;51.992;5.896;2024-03-25T09:42:49;9.10;99.90
56240;DHT22;42154;51.992;5.896;2024-03-25T09:45:18;9.20;99.90
56240;DHT22;42154;51.992;5.896;2024-03-25T09:47:47;9.30;99.90
56240;DHT22;42154;51.992;5.896;2024-03-25T09:50:14;9.40;99.90
56240;DHT22;42154;51.992;5.896;2024-03-25T09:52:54;9.50;99.90
56240;DHT22;42154;51.992;5.896;2024-03-25T09:55:19;9.60;99.90
56240;DHT22;42154;51.992;5.896;2024-03-25T09:57:46;9.60;99.90
56240;DHT22;42154;51.992;5.896;2024-03-25T10:00:12;9.70;99.90
56240;DHT22;42154;51.992;5.896;2024-03-25T10:02:44;9.70;99.90
56240;DHT22;42154;51.992;5.896;2024-03-25T10:05:09;9.80;99.90
56240;DHT22;42154;51.992;5.896;2024-03-25T10:07:35;9.90;99.90
56240;DHT22;42154;51.992;5.896;2024-03-25T10:10:05;9.90;99.90
56240;DHT22;42154;51.992;5.896;2024-03-25T10:12:32;10.00;99.90
56240;DHT22;42154;51.992;5.896;2024-03-25T10:14:57;10.10;99.90
56240;DHT22;42154;51.992;5.896;2024-03-25T10:17:24;10.30;99.90
56240;DHT22;42154;51.992;5.896;2024-03-25T10:19:49;10.40;99.90
56240;DHT22;42154;51.992;5.896;2024-03-25T10:22:15;10.50;99.90
56240;DHT22;42154;51.992;5.896;2024-03-25T10:24:42;10.60;99.90
56240;DHT22;42154;51.992;5.896;2024-03-25T10:27:21;10.70;99.90
56240;DHT22;42154;51.992;5.896;2024-03-25T10:29:47;10.90;99.90
56240;DHT22;42154;51.992;5.896;2024-03-25T10:32:14;10.90;99.90
56240;DHT22;42154;51.992;5.896;2024-03-25T10:34:40;11.00;99.90
56240;DHT22;42154;51.992;5.896;2024-03-25T10:37:09;11.10;99.90
56240;DHT22;42154;51.992;5.896;2024-03-25T10:39:40;11.20;99.90
56240;DHT22;42154;51.992;5.896;2024-03-25T10:42:11;11.20;99.90
56240;DHT22;42154;51.992;5.896;2024-03-25T10:44:38;11.30;99.90
56240;DHT22;42154;51.992;5.896;2024-03-25T10:47:06;11.40;99.90
56240;DHT22;42154;51.992;5.896;2024-03-25T10:52:24;11.60;99.90
56240;DHT22;42154;51.992;5.896;2024-03-25T10:54:50;11.60;99.90
56240;DHT22;42154;51.992;5.896;2024-03-25T10:57:17;11.70;99.90
56240;DHT22;42154;51.992;5.896;2024-03-25T10:59:43;11.70;99.90
56240;DHT22;42154;51.992;5.896;2024-03-25T11:02:12;11.50;99.90
56240;DHT22;42154;51.992;5.896;2024-03-25T11:04:38;11.50;99.90
56240;DHT22;42154;51.992;5.896;2024-03-25T11:07:13;11.50;99.90
56240;DHT22;42154;51.992;5.896;2024-03-25T11:09:40;11.50;99.90
56240;DHT22;42154;51.992;5.896;2024-03-25T11:12:07;11.60;99.90
56240;DHT22;42154;51.992;5.896;2024-03-25T11:14:33;11.60;99.90
56240;DHT22;42154;51.992;5.896;2024-03-25T11:16:59;11.70;99.90
56240;DHT22;42154;51.992;5.896;2024-03-25T11:19:27;11.80;99.90
56240;DHT22;42154;51.992;5.896;2024-03-25T11:21:54;11.80;99.90
56240;DHT22;42154;51.992;5.896;2024-03-25T11:24:29;11.90;99.90
56240;DHT22;42154;51.992;5.896;2024-03-25T11:26:55;11.90;99.90
56240;DHT22;42154;51.992;5.896;2024-03-25T11:29:22;11.90;99.90
56240;DHT22;42154;51.992;5.896;2024-03-25T11:31:49;11.90;99.90
56240;DHT22;42154;51.992;5.896;2024-03-25T11:34:19;11.90;99.90
56240;DHT22;42154;51.992;5.896;2024-03-25T11:36:44;11.80;99.90
56240;DHT22;42154;51.992;5.896;2024-03-25T11:39:11;11.80;99.90
56240;DHT22;42154;51.992;5.896;2024-03-25T11:41:42;11.90;99.90
56240;DHT22;42154;51.992;5.896;2024-03-25T11:44:08;12.00;99.90
56240;DHT22;42154;51.992;5.896;2024-03-25T11:46:37;12.00;99.90
56240;DHT22;42154;51.992;5.896;2024-03-25T11:49:07;12.00;99.90
56240;DHT22;42154;51.992;5.896;2024-03-25T11:51:33;12.10;99.90
56240;DHT22;42154;51.992;5.896;2024-03-25T11:53:59;12.20;99.90
56240;DHT22;42154;51.992;5.896;2024-03-25T11:56:26;12.30;99.90
56240;DHT22;42154;51.992;5.896;2024-03-25T11:58:52;12.40;99.90
56240;DHT22;42154;51.992;5.896;2024-03-25T12:01:18;12.40;99.90
56240;DHT22;42154;51.992;5.896;2024-03-25T12:03:43;12.50;99.90
56240;DHT22;42154;51.992;5.896;2024-03-25T12:06:09;12.60;99.90
56240;DHT22;42154;51.992;5.896;2024-03-25T12:08:35;12.60;99.90
56240;DHT22;42154;51.992;5.896;2024-03-25T12:11:10;12.70;99.90
56240;DHT22;42154;51.992;5.896;2024-03-25T12:13:45;12.70;99.90
56240;DHT22;42154;51.992;5.896;2024-03-25T12:16:11;12.80;99.90
56240;DHT22;42154;51.992;5.896;2024-03-25T12:18:40;12.80;99.90
56240;DHT22;42154;51.992;5.896;2024-03-25T12:21:07;12.80;99.90
56240;DHT22;42154;51.992;5.896;2024-03-25T12:23:34;12.70;99.90
56240;DHT22;42154;51.992;5.896;2024-03-25T12:26:01;12.70;99.90
56240;DHT22;42154;51.992;5.896;2024-03-25T12:28:27;12.50;99.90
56240;DHT22;42154;51.992;5.896;2024-03-25T12:30:54;12.40;99.90
56240;DHT22;42154;51.992;5.896;2024-03-25T12:33:24;12.30;99.90
56240;DHT22;42154;51.992;5.896;2024-03-25T12:35:52;12.10;99.90
56240;DHT22;42154;51.992;5.896;2024-03-25T12:38:30;12.00;99.90
56240;DHT22;42154;51.992;5.896;2024-03-25T12:41:10;11.90;99.90
56240;DHT22;42154;51.992;5.896;2024-03-25T12:43:43;11.80;99.90
56240;DHT22;42154;51.992;5.896;2024-03-25T12:46:10;11.90;99.90
56240;DHT22;42154;51.992;5.896;2024-03-25T12:48:36;12.00;99.90
56240;DHT22;42154;51.992;5.896;2024-03-25T12:51:02;12.00;99.90
56240;DHT22;42154;51.992;5.896;2024-03-25T12:53:28;12.00;99.90
56240;DHT22;42154;51.992;5.896;2024-03-25T12:55:54;12.00;99.90
56240;DHT22;42154;51.992;5.896;2024-03-25T12:58:20;12.00;99.90
56240;DHT22;42154;51.992;5.896;2024-03-25T13:00:45;12.10;99.90
56240;DHT22;42154;51.992;5.896;2024-03-25T13:03:11;12.20;99.90
56240;DHT22;42154;51.992;5.896;2024-03-25T13:05:38;12.20;99.90
56240;DHT22;42154;51.992;5.896;2024-03-25T13:08:04;12.20;99.90
56240;DHT22;42154;51.992;5.896;2024-03-25T13:10:30;12.10;99.90
56240;DHT22;42154;51.992;5.896;2024-03-25T13:12:57;12.00;99.90
56240;DHT22;42154;51.992;5.896;2024-03-25T13:15:23;11.90;99.90
56240;DHT22;42154;51.992;5.896;2024-03-25T13:17:49;11.90;99.90
56240;DHT22;42154;51.992;5.896;2024-03-25T13:20:15;11.90;99.90
56240;DHT22;42154;51.992;5.896;2024-03-25T13:22:41;12.00;99.90
56240;DHT22;42154;51.992;5.896;2024-03-25T13:25:08;12.10;99.90
56240;DHT22;42154;51.992;5.896;2024-03-25T13:27:34;12.10;99.90
56240;DHT22;42154;51.992;5.896;2024-03-25T13:30:00;12.10;99.90
56240;DHT22;42154;51.992;5.896;2024-03-25T13:32:26;12.10;99.90
56240;DHT22;42154;51.992;5.896;2024-03-25T13:34:51;12.00;99.90
56240;DHT22;42154;51.992;5.896;2024-03-25T13:37:17;11.90;99.90
56240;DHT22;42154;51.992;5.896;2024-03-25T13:39:43;11.90;99.90
56240;DHT22;42154;51.992;5.896;2024-03-25T13:42:09;11.80;99.90
56240;DHT22;42154;51.992;5.896;2024-03-25T13:44:34;11.80;99.90
56240;DHT22;42154;51.992;5.896;2024-03-25T13:47:00;11.90;99.90
56240;DHT22;42154;51.992;5.896;2024-03-25T13:49:26;12.10;99.90
56240;DHT22;42154;51.992;5.896;2024-03-25T13:51:57;12.20;99.90
56240;DHT22;42154;51.992;5.896;2024-03-25T13:54:27;12.30;99.90
56240;DHT22;42154;51.992;5.896;2024-03-25T13:56:53;12.40;99.90
56240;DHT22;42154;51.992;5.896;2024-03-25T13:59:19;12.40;99.90
56240;DHT22;42154;51.992;5.896;2024-03-25T14:01:45;12.50;99.90
56240;DHT22;42154;51.992;5.896;2024-03-25T14:04:11;12.70;99.90
56240;DHT22;42154;51.992;5.896;2024-03-25T14:06:37;12.70;99.90
56240;DHT22;42154;51.992;5.896;2024-03-25T14:09:03;12.70;99.90
56240;DHT22;42154;51.992;5.896;2024-03-25T14:11:38;12.70;99.90
56240;DHT22;42154;51.992;5.896;2024-03-25T14:14:04;12.80;99.90
56240;DHT22;42154;51.992;5.896;2024-03-25T14:16:29;12.80;99.90
56240;DHT22;42154;51.992;5.896;2024-03-25T14:18:55;12.90;99.90
56240;DHT22;42154;51.992;5.896;2024-03-25T14:21:21;13.00;99.90
56240;DHT22;42154;51.992;5.896;2024-03-25T14:23:46;13.00;99.90
56240;DHT22;42154;51.992;5.896;2024-03-25T14:26:12;12.90;99.90
56240;DHT22;42154;51.992;5.896;2024-03-25T14:28:40;12.70;99.90
56240;DHT22;42154;51.992;5.896;2024-03-25T14:31:06;12.60;99.90
56240;DHT22;42154;51.992;5.896;2024-03-25T14:33:32;12.60;99.90
56240;DHT22;42154;51.992;5.896;2024-03-25T14:35:57;12.50;99.90
56240;DHT22;42154;51.992;5.896;2024-03-25T14:38:23;12.40;99.90
56240;DHT22;42154;51.992;5.896;2024-03-25T14:40:49;12.40;99.90
56240;DHT22;42154;51.992;5.896;2024-03-25T14:43:15;12.30;99.90
56240;DHT22;42154;51.992;5.896;2024-03-25T14:45:44;12.20;99.90
56240;DHT22;42154;51.992;5.896;2024-03-25T14:48:10;12.10;99.90
56240;DHT22;42154;51.992;5.896;2024-03-25T14:50:36;12.00;99.90
56240;DHT22;42154;51.992;5.896;2024-03-25T14:53:02;12.00;99.90
56240;DHT22;42154;51.992;5.896;2024-03-25T14:55:29;12.10;99.90
56240;DHT22;42154;51.992;5.896;2024-03-25T14:57:55;12.20;99.90
56240;DHT22;42154;51.992;5.896;2024-03-25T15:00:20;12.30;99.90
56240;DHT22;42154;51.992;5.896;2024-03-25T15:02:47;12.40;99.90
56240;DHT22;42154;51.992;5.896;2024-03-25T15:05:12;12.50;99.90
56240;DHT22;42154;51.992;5.896;2024-03-25T15:07:38;12.70;99.90
56240;DHT22;42154;51.992;5.896;2024-03-25T15:10:04;12.80;99.90
56240;DHT22;42154;51.992;5.896;2024-03-25T15:12:30;12.90;99.90
56240;DHT22;42154;51.992;5.896;2024-03-25T15:14:56;13.00;99.90
56240;DHT22;42154;51.992;5.896;2024-03-25T15:17:22;13.00;99.90
56240;DHT22;42154;51.992;5.896;2024-03-25T15:19:47;13.00;99.90
56240;DHT22;42154;51.992;5.896;2024-03-25T15:22:13;12.90;99.90
56240;DHT22;42154;51.992;5.896;2024-03-25T15:24:39;12.80;99.90
56240;DHT22;42154;51.992;5.896;2024-03-25T15:27:04;12.60;99.90
56240;DHT22;42154;51.992;5.896;2024-03-25T15:29:30;12.50;99.90
56240;DHT22;42154;51.992;5.896;2024-03-25T15:31:56;12.50;99.90
56240;DHT22;42154;51.992;5.896;2024-03-25T15:34:22;12.40;99.90
56240;DHT22;42154;51.992;5.896;2024-03-25T15:36:47;12.30;99.90
56240;DHT22;42154;51.992;5.896;2024-03-25T15:39:15;12.30;99.90